LICJ Airport Information

Runway Information
Runway 02 Length 6804 ft width 148 ft
Elevation 42 ft Threshold 10 ft Heading 24
Runway 20 Length 6804 ft Width 148 ft
Elevation 22 ft Threshold 10 ft Heading 204
Runway 07 Length 10912 ft width 197 ft
Elevation 33 ft Threshold 404 ft Heading 67
Runway 25 Length 10912 ft Width 197 ft
Elevation 50 ft Threshold 679 ft Heading 247
Airport Frequencies
Type APP Name APP Frequency 120.2 MHZ
Type GND Name RAISI GND Frequency 121.625 MHZ
Type TWR Name RAISI TWR Frequency 119.05 MHZ
Airport Navaids
Type VOR-DME Name Palermo Frequency 112300 KHZ
Type NDB Name Palermo Frequency 356 KHZ
Type VOR-DME Name Raisi Frequency 113000 KHZ
Type NDB Name Raisi Frequency 329 KHZ
Airport Weather Information & NOTAM
ADDS - METARS form results

(1329 UTC 09 April 2020)
Data provider http://aviationweather.gov/metar/data/
 
METAR text: LICJ 091320Z 03012KT CAVOK 16/12 Q1021
Conditions at: LICJ (PALERMO/POINT RA, IT) observed 1320 UTC 09 April 2020
Temperature: 16.0°C (61°F)
Dewpoint: 12.0°C (54°F) [RH = 77%]
Pressure (altimeter): 30.15 inches Hg (1021.0 mb)
Winds: from the NNE (30 degrees) at 14 MPH (12 knots; 6.2 m/s)
Visibility: 6 or more miles (10+ km)
Ceiling: ceiling and visibility are OK
Clouds: unknown
Weather: no significant weather observed at this time

METAR text: LICJ 091250Z 02011KT CAVOK 16/11 Q1022
Conditions at: LICJ (PALERMO/POINT RA, IT) observed 1250 UTC 09 April 2020
Temperature: 16.0°C (61°F)
Dewpoint: 11.0°C (52°F) [RH = 72%]
Pressure (altimeter): 30.18 inches Hg (1022.0 mb)
Winds: from the NNE (20 degrees) at 13 MPH (11 knots; 5.7 m/s)
Visibility: 6 or more miles (10+ km)
Ceiling: ceiling and visibility are OK
Clouds: unknown
Weather: no significant weather observed at this time

Forecast for: LICJ (PALERMO/POINT RA, IT)
Text: TAF LICJ 091100Z 0912/1012 VRB06KT 9999 FEW030
Forecast period: 1200 UTC 09 April 2020 to 1200 UTC 10 April 2020
Forecast type: FROM: standard forecast or significant change
Winds: variable direction winds at 7 MPH (6 knots; 3.1 m/s)
Visibility: 6 or more miles 10+ km)
Ceiling: at least 12,000 feet AGL
Clouds: few clouds at 3000 feet AGL
Weather: no significant weather forecast for this period